Have a Safe July 4th! 

Flight Track Log - Related Links

Times and Time Zones

All times are in EDT time to prevent confusion due to time zone crossing. See the AAR8736 flight status page for this flight to view local times or setup timezone preferences in your user account.

Time Position Orientation Groundspeed Altitude Reporting Facility
EDT Latitude Longitude Course Direction KTS MPH feet Rate Location/Type
Thu 03:49:00 AM 35.0804 127.5447 346° North  Level Estimated
Thu 03:50:00 AM 35.1606 127.5210 346° North  Level Estimated
Thu 03:51:00 AM 35.2408 127.4973 346° North  Level Estimated
Thu 03:52:00 AM 35.3210 127.4736 346° North  Level Estimated
Thu 03:53:00 AM 35.4011 127.4498 346° North  Level Estimated
Thu 03:54:00 AM 35.4813 127.4259 346° North  Level Estimated
Thu 03:55:00 AM 35.5615 127.4020 346° North  Level Estimated
Thu 03:56:00 AM 35.6417 127.3781 346° North  Level Estimated
Thu 03:57:00 AM 35.7218 127.3541 346° North  Level Estimated
Thu 03:58:00 AM 35.8020 127.3301 346° North  Level Estimated
Thu 03:59:00 AM 35.8821 127.3060 346° North  Level Estimated
Thu 04:00:00 AM 35.9623 127.2819 346° North  Level Estimated
Thu 04:01:00 AM 36.0424 127.2577 346° North  Level Estimated
Thu 04:02:00 AM 36.1226 127.2335 346° North  Level Estimated
Thu 04:03:00 AM 36.2027 127.2092 346° North  Level Estimated
Thu 04:04:00 AM 36.2828 127.1849 346° North  Level Estimated
Thu 04:05:00 AM 36.3629 127.1605 346° North  Level Estimated
Thu 04:06:00 AM 36.4431 127.1361 346° North  Level Estimated
Thu 04:07:00 AM 36.5232 127.1116 346° North  Level Estimated
Thu 04:08:00 AM 36.6033 127.0871 346° North  Level Estimated
Thu 04:09:00 AM 36.6834 127.0625 346° North  Level Estimated
Thu 04:10:00 AM 36.7635 127.0379 346° North  Level Estimated
Thu 04:11:00 AM 36.8436 127.0132 346° North  Level Estimated
Thu 04:12:00 AM 36.9237 126.9885 346° North  Level Estimated
Thu 04:13:00 AM 37.0037 126.9637 346° North  Level Estimated
Thu 04:14:00 AM 37.0838 126.9389 346° North  Level Estimated
Thu 04:15:00 AM 37.1639 126.9140 346° North  Level Estimated
Thu 04:16:00 AM 37.2440 126.8890 346° North  Level Estimated
Thu 04:17:00 AM 37.3240 126.8640 346° North  Level Estimated
Thu 04:18:00 AM 37.4041 126.8390 346° North  Level Estimated
Thu 04:19:00 AM 37.4841 126.8139 346° North  Level Estimated
Thu 04:20:00 AM 37.5583 126.7906 346° North  Level Estimated
Thu 04:21:00 AM 37.5583 126.7906 288° West  Level Estimated
Thu 04:22:00 AM 37.5583 126.7906 288° West  Level Estimated
Thu 04:23:00 AM 37.5583 126.7906 288° West  Level Estimated
Thu 04:24:00 AM 37.5583 126.7906 288° West  Level Estimated
Thu 04:25:00 AM 37.5583 126.7906 288° West  Level Estimated
Thu 04:26:00 AM 37.5583 126.7906 288° West  Level Estimated
Thu 04:27:00 AM 37.5583 126.7906 288° West  Level Estimated
Thu 04:28:00 AM 37.5583 126.7906 288° West  Level Estimated
Thu 04:29:00 AM 37.5583 126.7906 288° West  Level Estimated
Thu 04:30:00 AM 37.5583 126.7906 288° West  Level Estimated
Thu 04:31:00 AM 37.5583 126.7906 288° West  Level Estimated
Thu 04:32:00 AM 37.5583 126.7906 288° West  Level Estimated
Thu 04:33:00 AM 37.5583 126.7906 288° West  Level Estimated
Thu 04:34:00 AM 37.5583 126.7906 288° West  Level Estimated
Thu 04:35:00 AM 37.5583 126.7906 288° West  Level Estimated
Thu 04:36:00 AM 37.5583 126.7906 288° West  Level Estimated

Login

Don't have an account? Register now (free) for customized features, flight alerts, and more!